createdAt,value
2023-01-09T00:00:26.489Z,6.4
2023-01-09T00:01:33.535Z,6.4
2023-01-09T00:02:40.196Z,6.4
2023-01-09T00:03:47.359Z,6.4
2023-01-09T00:04:54.398Z,6.4
2023-01-09T00:06:01.474Z,6.4
2023-01-09T00:07:08.534Z,6.4
2023-01-09T00:08:15.672Z,6.4
2023-01-09T00:09:22.378Z,6.4
2023-01-09T00:10:29.379Z,6.3
2023-01-09T00:11:36.449Z,6.3
2023-01-09T00:12:43.564Z,6.3
2023-01-09T00:13:50.657Z,6.3
2023-01-09T00:14:57.363Z,6.3
2023-01-09T00:16:04.389Z,6.3
2023-01-09T00:17:11.410Z,6.3
2023-01-09T00:18:18.590Z,6.3
2023-01-09T00:19:25.226Z,6.2
2023-01-09T00:20:32.336Z,6.3
2023-01-09T00:21:39.388Z,6.3
2023-01-09T00:22:46.451Z,6.3
2023-01-09T00:23:53.525Z,6.3
2023-01-09T00:25:00.708Z,6.3
2023-01-09T00:27:14.347Z,6.3
2023-01-09T00:28:21.473Z,6.3
2023-01-09T00:29:28.591Z,6.3
2023-01-09T00:31:42.268Z,6.3
2023-01-09T00:32:49.413Z,6.3
2023-01-09T00:33:56.533Z,6.2
2023-01-09T00:35:03.562Z,6.2
2023-01-09T00:36:10.227Z,6.1
2023-01-09T00:37:17.331Z,6.1
2023-01-09T00:39:31.492Z,6
2023-01-09T00:40:38.647Z,6
2023-01-09T00:41:45.188Z,6
2023-01-09T00:42:52.240Z,6
2023-01-09T00:43:59.365Z,5.9
2023-01-09T00:45:06.486Z,5.9
2023-01-09T00:46:13.701Z,6
2023-01-09T00:47:20.225Z,6
2023-01-09T00:48:27.313Z,5.9
2023-01-09T00:49:34.378Z,5.9
2023-01-09T00:50:41.505Z,6
2023-01-09T00:51:48.819Z,6
2023-01-09T00:52:55.190Z,6
2023-01-09T00:54:02.281Z,5.9
2023-01-09T00:55:09.353Z,6
2023-01-09T00:56:16.823Z,5.9
2023-01-09T00:57:23.669Z,5.9
2023-01-09T00:58:30.232Z,5.9
2023-01-09T00:59:37.294Z,5.8
2023-01-09T01:00:44.393Z,5.8
2023-01-09T01:01:51.707Z,5.8
2023-01-09T01:02:58.809Z,5.8
2023-01-09T01:04:05.249Z,5.8
2023-01-09T01:05:12.331Z,5.8
2023-01-09T01:06:19.434Z,5.7
2023-01-09T01:07:27.520Z,5.8
2023-01-09T01:08:33.625Z,5.7
2023-01-09T01:09:40.228Z,5.8
2023-01-09T01:10:47.320Z,5.7
2023-01-09T01:11:54.450Z,5.8
2023-01-09T01:13:01.531Z,5.7
2023-01-09T01:14:08.671Z,5.7
2023-01-09T01:15:15.251Z,5.7
2023-01-09T01:16:22.309Z,5.8
2023-01-09T01:17:29.445Z,5.7
2023-01-09T01:18:36.523Z,5.7
2023-01-09T01:20:50.263Z,5.7
2023-01-09T01:21:57.388Z,5.8
2023-01-09T01:23:04.463Z,5.8
2023-01-09T01:24:11.548Z,5.8
2023-01-09T01:25:18.693Z,5.8
2023-01-09T01:26:25.240Z,5.8
2023-01-09T01:27:32.421Z,5.8
2023-01-09T01:28:39.400Z,5.8
2023-01-09T01:30:53.719Z,5.8
2023-01-09T01:32:00.292Z,5.8
2023-01-09T01:33:07.389Z,5.7
2023-01-09T01:34:14.469Z,5.8
2023-01-09T01:35:21.553Z,5.8
2023-01-09T01:36:28.138Z,5.8
2023-01-09T01:37:35.239Z,5.9
2023-01-09T01:38:42.349Z,5.9
2023-01-09T01:39:49.452Z,5.9
2023-01-09T01:40:56.590Z,6
2023-01-09T01:42:03.200Z,6
2023-01-09T01:43:10.271Z,6
2023-01-09T01:44:17.362Z,6
2023-01-09T01:45:24.480Z,6
2023-01-09T01:46:31.537Z,6
2023-01-09T01:47:38.183Z,6.1
2023-01-09T01:48:45.776Z,6.1
2023-01-09T01:49:52.408Z,6.1
2023-01-09T01:50:59.595Z,6.1
2023-01-09T01:52:06.623Z,6.1
2023-01-09T01:53:13.207Z,6.1
2023-01-09T01:54:20.316Z,6.1
2023-01-09T01:55:27.441Z,6.1
2023-01-09T01:56:34.503Z,6.1
2023-01-09T01:57:41.541Z,6.1
2023-01-09T01:59:55.303Z,6.2
2023-01-09T02:02:09.954Z,6.2
2023-01-09T02:03:16.653Z,6.3
2023-01-09T02:04:23.667Z,6.3
2023-01-09T02:05:30.247Z,6.3
2023-01-09T02:06:37.410Z,6.3
2023-01-09T02:07:44.493Z,6.4
2023-01-09T02:08:51.622Z,6.4
2023-01-09T02:09:58.233Z,6.4
2023-01-09T02:11:05.290Z,6.4
2023-01-09T02:12:12.455Z,6.4
2023-01-09T02:13:19.535Z,6.4
2023-01-09T02:14:26.632Z,6.3
2023-01-09T02:15:33.152Z,6.3
2023-01-09T02:16:40.308Z,6.3
2023-01-09T02:17:47.466Z,6.3
2023-01-09T02:18:54.560Z,6.3
2023-01-09T02:20:01.638Z,6.3
2023-01-09T02:21:08.227Z,6.3
2023-01-09T02:22:15.416Z,6.3
2023-01-09T02:24:29.565Z,6.4
2023-01-09T02:25:36.648Z,6.4
2023-01-09T02:26:43.201Z,6.4
2023-01-09T02:27:50.310Z,6.4
2023-01-09T02:28:57.411Z,6.4
2023-01-09T02:30:04.574Z,6.4
2023-01-09T02:31:11.615Z,6.3
2023-01-09T02:32:18.302Z,6.3
2023-01-09T02:34:32.392Z,6.4
2023-01-09T02:35:40.116Z,6.4
2023-01-09T02:36:46.679Z,6.4
2023-01-09T02:37:53.202Z,6.5
2023-01-09T02:39:00.290Z,6.5
2023-01-09T02:40:07.453Z,6.5
2023-01-09T02:41:14.639Z,6.5
2023-01-09T02:43:28.317Z,6.5
2023-01-09T02:44:35.356Z,6.5
2023-01-09T02:45:42.554Z,6.5
2023-01-09T02:46:49.579Z,6.5
2023-01-09T02:47:56.240Z,6.4
2023-01-09T02:49:03.218Z,6.5
2023-01-09T02:50:10.346Z,6.4
2023-01-09T02:51:17.472Z,6.4
2023-01-09T02:52:24.620Z,6.4
2023-01-09T02:53:31.682Z,6.4
2023-01-09T02:54:38.267Z,6.4
2023-01-09T02:55:45.393Z,6.4
2023-01-09T02:56:52.444Z,6.4
2023-01-09T02:57:59.081Z,6.5
2023-01-09T02:59:06.190Z,6.5
2023-01-09T03:00:13.216Z,6.5
2023-01-09T03:01:20.540Z,6.5
2023-01-09T03:02:27.624Z,6.5
2023-01-09T03:03:34.619Z,6.4
2023-01-09T03:04:41.129Z,6.4
2023-01-09T03:05:48.289Z,6.4
2023-01-09T03:06:55.397Z,6.4
2023-01-09T03:08:02.555Z,6.4
2023-01-09T03:09:09.591Z,6.4
2023-01-09T03:10:18.243Z,6.4
2023-01-09T03:11:23.289Z,6.4
2023-01-09T03:12:30.480Z,6.4
2023-01-09T03:13:37.501Z,6.4
2023-01-09T03:14:44.594Z,6.5
2023-01-09T03:15:51.683Z,6.5
2023-01-09T03:16:58.383Z,6.5
2023-01-09T03:18:05.425Z,6.5
2023-01-09T03:19:12.442Z,6.5
2023-01-09T03:20:19.631Z,6.5
2023-01-09T03:21:26.173Z,6.5
2023-01-09T03:22:33.362Z,6.4
2023-01-09T03:24:47.548Z,6.5
2023-01-09T03:25:54.098Z,6.5
2023-01-09T03:28:08.339Z,6.5
2023-01-09T03:29:15.433Z,6.4
2023-01-09T03:30:22.507Z,6.5
2023-01-09T03:31:29.720Z,6.4
2023-01-09T03:32:36.193Z,6.5
2023-01-09T03:33:43.261Z,6.5
2023-01-09T03:34:50.360Z,6.5
2023-01-09T03:35:57.509Z,6.5
2023-01-09T03:38:11.285Z,6.5
2023-01-09T03:39:18.384Z,6.5
2023-01-09T03:40:25.450Z,6.5
2023-01-09T03:41:32.502Z,6.5
2023-01-09T03:42:39.656Z,6.5
2023-01-09T03:43:46.300Z,6.5
2023-01-09T03:44:53.273Z,6.5
2023-01-09T03:46:00.534Z,6.5
2023-01-09T03:47:07.588Z,6.5
2023-01-09T03:48:14.674Z,6.5
2023-01-09T03:49:21.279Z,6.5
2023-01-09T03:50:28.364Z,6.5
2023-01-09T03:51:35.425Z,6.5
2023-01-09T03:52:42.523Z,6.5
2023-01-09T03:53:49.630Z,6.5
2023-01-09T03:54:56.281Z,6.5
2023-01-09T03:56:03.813Z,6.5
2023-01-09T03:57:10.487Z,6.5
2023-01-09T03:58:17.571Z,6.5
2023-01-09T03:59:24.641Z,6.5
2023-01-09T04:00:31.316Z,6.5
2023-01-09T04:01:38.491Z,6.4
2023-01-09T04:02:45.473Z,6.5
2023-01-09T04:03:53.121Z,6.5
2023-01-09T04:06:06.255Z,6.4
2023-01-09T04:07:13.451Z,6.5
2023-01-09T04:08:20.413Z,6.5
2023-01-09T04:09:27.547Z,6.4
2023-01-09T04:10:34.140Z,6.4
2023-01-09T04:11:41.271Z,6.4
2023-01-09T04:12:48.399Z,6.4
2023-01-09T04:13:57.299Z,6.4
2023-01-09T04:15:02.535Z,6.4
2023-01-09T04:16:09.152Z,6.4
2023-01-09T04:17:16.333Z,6.5
2023-01-09T04:18:23.404Z,6.5
2023-01-09T04:19:30.421Z,6.4
2023-01-09T04:20:37.604Z,6.5
2023-01-09T04:21:44.152Z,6.5
2023-01-09T04:22:51.320Z,6.6
2023-01-09T04:23:58.421Z,6.6
2023-01-09T04:25:05.480Z,6.6
2023-01-09T04:26:12.552Z,6.6
2023-01-09T04:27:19.765Z,6.6
2023-01-09T04:28:26.316Z,6.6
2023-01-09T04:29:33.362Z,6.6
2023-01-09T04:30:40.449Z,6.7
2023-01-09T04:31:47.637Z,6.6
2023-01-09T04:32:54.192Z,6.6
2023-01-09T04:34:01.293Z,6.6
2023-01-09T04:35:08.405Z,6.6
2023-01-09T04:36:15.490Z,6.6
2023-01-09T04:37:22.607Z,6.5
2023-01-09T04:38:29.230Z,6.5
2023-01-09T04:39:36.278Z,6.5
2023-01-09T04:41:50.486Z,6.5
2023-01-09T04:42:57.630Z,6.5
2023-01-09T04:44:04.251Z,6.5
2023-01-09T04:45:11.291Z,6.5
2023-01-09T04:47:25.585Z,6.5
2023-01-09T04:48:32.603Z,6.5
2023-01-09T04:49:39.753Z,6.6
2023-01-09T04:50:46.336Z,6.6
2023-01-09T04:51:53.410Z,6.6
2023-01-09T04:53:00.595Z,6.6
2023-01-09T04:54:07.641Z,6.6
2023-01-09T04:56:21.275Z,6.6
2023-01-09T04:57:28.430Z,6.6
2023-01-09T04:58:35.567Z,6.7
2023-01-09T04:59:42.616Z,6.6
2023-01-09T05:00:49.316Z,6.7
2023-01-09T05:01:56.526Z,6.7
2023-01-09T05:03:03.427Z,6.7
2023-01-09T05:04:10.587Z,6.7
2023-01-09T05:05:17.624Z,6.7
2023-01-09T05:06:24.234Z,6.7
2023-01-09T05:07:31.373Z,6.7
2023-01-09T05:08:38.418Z,6.7
2023-01-09T05:09:45.564Z,6.7
2023-01-09T05:10:52.708Z,6.7
2023-01-09T05:12:01.623Z,6.7
2023-01-09T05:13:06.393Z,6.7
2023-01-09T05:14:13.432Z,6.7
2023-01-09T05:15:20.501Z,6.7
2023-01-09T05:17:34.293Z,6.7
2023-01-09T05:18:41.342Z,6.7
2023-01-09T05:19:48.470Z,6.7
2023-01-09T05:20:55.549Z,6.7
2023-01-09T05:22:02.624Z,6.7
2023-01-09T05:23:09.265Z,6.7
2023-01-09T05:24:16.382Z,6.7
2023-01-09T05:25:23.414Z,6.7
2023-01-09T05:26:30.557Z,6.7
2023-01-09T05:28:44.338Z,6.7
2023-01-09T05:29:51.363Z,6.7
2023-01-09T05:30:58.450Z,6.7
2023-01-09T05:32:06.079Z,6.7
2023-01-09T05:33:12.663Z,6.7
2023-01-09T05:34:19.262Z,6.7
2023-01-09T05:35:26.429Z,6.7
2023-01-09T05:36:33.428Z,6.7
2023-01-09T05:37:40.621Z,6.8
2023-01-09T05:38:47.724Z,6.8
2023-01-09T05:39:54.255Z,6.8
2023-01-09T05:41:01.372Z,6.8
2023-01-09T05:42:08.492Z,6.8
2023-01-09T05:43:15.663Z,6.8
2023-01-09T05:44:22.178Z,6.8
2023-01-09T05:45:29.345Z,6.8
2023-01-09T05:46:36.424Z,6.9
2023-01-09T05:47:43.551Z,6.8
2023-01-09T05:48:50.582Z,6.8
2023-01-09T05:49:57.162Z,6.9
2023-01-09T05:51:04.274Z,6.9
2023-01-09T05:52:11.372Z,6.9
2023-01-09T05:53:18.573Z,6.9
2023-01-09T05:54:25.640Z,6.9
2023-01-09T05:55:32.185Z,6.9
2023-01-09T05:56:39.337Z,6.9
2023-01-09T05:57:46.423Z,6.8
2023-01-09T05:58:53.531Z,6.8
2023-01-09T06:00:00.595Z,6.8
2023-01-09T06:01:07.789Z,6.8
2023-01-09T06:02:14.486Z,6.8
2023-01-09T06:03:21.902Z,6.8
2023-01-09T06:04:28.526Z,6.8
2023-01-09T06:05:35.638Z,6.8
2023-01-09T06:06:42.145Z,6.8
2023-01-09T06:07:49.332Z,6.7
2023-01-09T06:10:03.521Z,6.7
2023-01-09T06:11:10.637Z,6.7
2023-01-09T06:12:17.308Z,6.7
2023-01-09T06:13:24.289Z,6.7
2023-01-09T06:14:31.411Z,6.7
2023-01-09T06:15:38.605Z,6.7
2023-01-09T06:16:45.641Z,6.7
2023-01-09T06:17:52.206Z,6.7
2023-01-09T06:18:59.336Z,6.7
2023-01-09T06:20:06.442Z,6.7
2023-01-09T06:21:13.513Z,6.7
2023-01-09T06:22:20.655Z,6.7
2023-01-09T06:24:34.314Z,6.7
2023-01-09T06:25:41.456Z,6.7
2023-01-09T06:26:48.564Z,6.7
2023-01-09T06:27:55.633Z,6.7
2023-01-09T06:29:02.216Z,6.7
2023-01-09T06:30:09.331Z,6.7
2023-01-09T06:31:16.487Z,6.7
2023-01-09T06:32:23.598Z,6.8
2023-01-09T06:33:30.604Z,6.8
2023-01-09T06:34:37.286Z,6.8
2023-01-09T06:35:44.457Z,6.8
2023-01-09T06:36:51.432Z,6.7
2023-01-09T06:37:58.551Z,6.7
2023-01-09T06:39:05.707Z,6.8
2023-01-09T06:40:12.236Z,6.8
2023-01-09T06:41:19.334Z,6.8
2023-01-09T06:42:26.535Z,6.8
2023-01-09T06:43:33.512Z,6.8
2023-01-09T06:44:40.615Z,6.8
2023-01-09T06:45:47.276Z,6.9
2023-01-09T06:48:01.464Z,7
2023-01-09T06:49:09.934Z,7
2023-01-09T06:51:22.239Z,7
2023-01-09T06:52:29.439Z,7
2023-01-09T06:53:36.507Z,7
2023-01-09T06:54:43.670Z,7
2023-01-09T06:55:50.631Z,7
2023-01-09T06:56:57.300Z,7
2023-01-09T06:58:04.444Z,7.1
2023-01-09T06:59:11.462Z,7.1
2023-01-09T07:00:18.585Z,7.1
2023-01-09T07:01:25.791Z,7.1
2023-01-09T07:02:32.331Z,7.1
2023-01-09T07:03:39.366Z,7.1
2023-01-09T07:04:46.521Z,7.1
2023-01-09T07:05:53.582Z,7.1
2023-01-09T07:08:08.394Z,7.1
2023-01-09T07:09:14.399Z,7.1
2023-01-09T07:10:21.534Z,7.1
2023-01-09T07:11:28.624Z,7.1
2023-01-09T07:12:35.685Z,7.1
2023-01-09T07:13:42.262Z,7.1
2023-01-09T07:15:56.541Z,7.1
2023-01-09T07:17:03.607Z,7.1
2023-01-09T07:18:10.254Z,7.1
2023-01-09T07:19:17.290Z,7.1
2023-01-09T07:20:24.424Z,7.1
2023-01-09T07:21:32.864Z,7.1
2023-01-09T07:22:38.750Z,7
2023-01-09T07:23:45.231Z,7
2023-01-09T07:24:52.286Z,7
2023-01-09T07:25:59.392Z,7
2023-01-09T07:27:06.497Z,7
2023-01-09T07:28:13.687Z,7
2023-01-09T07:29:20.226Z,7
2023-01-09T07:30:27.336Z,7
2023-01-09T07:32:41.585Z,7
2023-01-09T07:33:48.682Z,7
2023-01-09T07:34:55.193Z,7
2023-01-09T07:36:02.337Z,7
2023-01-09T07:37:09.378Z,7
2023-01-09T07:38:16.612Z,7
2023-01-09T07:39:23.597Z,7
2023-01-09T07:40:30.397Z,7
2023-01-09T07:41:37.320Z,7
2023-01-09T07:43:51.546Z,7
2023-01-09T07:44:58.637Z,7
2023-01-09T07:46:05.293Z,7
2023-01-09T07:47:12.336Z,7
2023-01-09T07:48:19.426Z,7
2023-01-09T07:49:27.660Z,7
2023-01-09T07:50:33.600Z,7
2023-01-09T07:51:40.263Z,7
2023-01-09T07:52:47.433Z,7
2023-01-09T07:53:54.446Z,7
2023-01-09T07:55:01.551Z,7
2023-01-09T07:56:08.692Z,7
2023-01-09T07:57:15.827Z,7
2023-01-09T07:58:22.440Z,7
2023-01-09T07:59:29.409Z,7
2023-01-09T08:00:36.575Z,6.9
2023-01-09T08:01:43.768Z,6.9
2023-01-09T08:02:50.406Z,6.9
2023-01-09T08:03:57.371Z,7
2023-01-09T08:05:04.495Z,7
2023-01-09T08:06:11.577Z,7
2023-01-09T08:07:18.705Z,7
2023-01-09T08:08:25.266Z,6.9
2023-01-09T08:09:32.342Z,6.9
2023-01-09T08:11:46.554Z,6.9
2023-01-09T08:14:00.333Z,6.9
2023-01-09T08:15:07.413Z,6.9
2023-01-09T08:16:14.484Z,6.9
2023-01-09T08:17:21.062Z,6.9
2023-01-09T08:18:28.760Z,6.9
2023-01-09T08:19:35.303Z,6.9
2023-01-09T08:20:42.392Z,6.9
2023-01-09T08:21:49.588Z,6.9
2023-01-09T08:22:56.631Z,6.9
2023-01-09T08:24:03.703Z,6.9
2023-01-09T08:25:12.225Z,6.9
2023-01-09T08:26:17.402Z,6.9
2023-01-09T08:27:24.556Z,6.9
2023-01-09T08:28:32.075Z,7
2023-01-09T08:29:38.223Z,7
2023-01-09T08:30:46.342Z,7
2023-01-09T08:31:52.449Z,7
2023-01-09T08:32:59.659Z,6.9
2023-01-09T08:34:06.619Z,6.8
2023-01-09T08:35:13.195Z,6.8
2023-01-09T08:36:20.348Z,6.8
2023-01-09T08:37:27.422Z,6.8
2023-01-09T08:38:34.499Z,6.8
2023-01-09T08:39:41.605Z,6.8
2023-01-09T08:40:48.211Z,6.8
2023-01-09T08:41:55.340Z,6.8
2023-01-09T08:43:02.453Z,6.8
2023-01-09T08:44:09.533Z,6.8
2023-01-09T08:46:23.716Z,6.8
2023-01-09T08:47:30.329Z,6.8
2023-01-09T08:48:37.399Z,6.8
2023-01-09T08:49:44.495Z,6.8
2023-01-09T08:50:51.644Z,6.8
2023-01-09T08:51:58.259Z,6.8
2023-01-09T08:53:05.342Z,6.8
2023-01-09T08:55:19.514Z,6.7
2023-01-09T08:56:26.655Z,6.8
2023-01-09T08:57:33.283Z,6.7
2023-01-09T08:58:40.414Z,6.7
2023-01-09T08:59:47.446Z,6.7
2023-01-09T09:00:54.595Z,6.7
2023-01-09T09:02:01.659Z,6.7
2023-01-09T09:03:08.362Z,6.7
2023-01-09T09:04:15.380Z,6.7
2023-01-09T09:05:22.412Z,6.7
2023-01-09T09:06:29.573Z,6.8
2023-01-09T09:07:36.723Z,6.8
2023-01-09T09:08:43.707Z,6.9
2023-01-09T09:09:50.391Z,6.8
2023-01-09T09:10:57.545Z,6.8
2023-01-09T09:12:05.039Z,6.8
2023-01-09T09:15:25.444Z,6.9
2023-01-09T09:16:32.658Z,6.9
2023-01-09T09:17:39.638Z,6.9
2023-01-09T09:18:46.661Z,6.8
2023-01-09T09:21:00.361Z,6.8
2023-01-09T09:22:07.504Z,6.8
2023-01-09T09:23:14.597Z,6.8
2023-01-09T09:24:21.684Z,6.8
2023-01-09T09:25:28.293Z,6.8
2023-01-09T09:26:35.408Z,6.8
2023-01-09T09:27:42.474Z,6.8
2023-01-09T09:28:49.596Z,6.7
2023-01-09T09:29:56.733Z,6.8
2023-01-09T09:31:03.306Z,6.8
2023-01-09T09:32:10.351Z,6.8
2023-01-09T09:33:17.529Z,6.7
2023-01-09T09:34:24.613Z,6.7
2023-01-09T09:36:38.314Z,6.7
2023-01-09T09:37:45.460Z,6.7
2023-01-09T09:38:52.460Z,6.7
2023-01-09T09:40:03.803Z,6.7
2023-01-09T09:41:06.694Z,6.7
2023-01-09T09:42:13.301Z,6.7
2023-01-09T09:43:20.476Z,6.7
2023-01-09T09:44:27.522Z,6.7
2023-01-09T09:45:34.614Z,6.7
2023-01-09T09:46:41.750Z,6.7
2023-01-09T09:47:48.319Z,6.8
2023-01-09T09:48:55.430Z,6.8
2023-01-09T09:50:02.601Z,6.8
2023-01-09T09:51:09.634Z,6.8
2023-01-09T09:52:16.184Z,6.8
2023-01-09T09:53:23.322Z,6.8
2023-01-09T09:54:30.365Z,6.8
2023-01-09T09:55:37.547Z,6.8
2023-01-09T09:56:44.643Z,6.8
2023-01-09T09:57:51.738Z,6.8
2023-01-09T09:58:58.326Z,6.8
2023-01-09T10:00:05.485Z,6.8
2023-01-09T10:01:12.502Z,6.8
2023-01-09T10:02:19.616Z,6.8
2023-01-09T10:03:33.681Z,6.8
2023-01-09T10:04:33.268Z,6.8
2023-01-09T10:05:40.401Z,6.8
2023-01-09T10:06:47.551Z,6.9
2023-01-09T10:07:54.644Z,6.8
2023-01-09T10:09:01.300Z,6.8
2023-01-09T10:10:08.311Z,6.8
2023-01-09T10:11:15.447Z,6.8
2023-01-09T10:12:22.543Z,6.8
2023-01-09T10:13:31.831Z,6.8
2023-01-09T10:14:36.264Z,6.8
2023-01-09T10:15:43.381Z,6.8
2023-01-09T10:19:04.677Z,6.8
2023-01-09T10:20:11.214Z,6.8
2023-01-09T10:21:18.348Z,6.9
2023-01-09T10:22:25.435Z,6.9
2023-01-09T10:23:32.625Z,7
2023-01-09T10:24:39.713Z,7
2023-01-09T10:25:46.271Z,7
2023-01-09T10:26:53.329Z,7
2023-01-09T10:28:00.447Z,7
2023-01-09T10:29:07.672Z,7
2023-01-09T10:30:14.719Z,7
2023-01-09T10:31:21.289Z,7
2023-01-09T10:32:28.346Z,7
2023-01-09T10:33:35.440Z,7.1
2023-01-09T10:34:43.012Z,7
2023-01-09T10:35:49.710Z,7
2023-01-09T10:36:56.299Z,7
2023-01-09T10:38:03.356Z,7
2023-01-09T10:39:10.435Z,7
2023-01-09T10:40:18.502Z,7
2023-01-09T10:41:24.713Z,7
2023-01-09T10:42:31.862Z,7
2023-01-09T10:43:38.433Z,7
2023-01-09T10:44:45.517Z,6.9
2023-01-09T10:45:52.656Z,6.9
2023-01-09T10:46:59.740Z,7
2023-01-09T10:48:06.308Z,7
2023-01-09T10:49:13.370Z,7
2023-01-09T10:50:20.483Z,7
2023-01-09T10:51:27.710Z,7
2023-01-09T10:52:34.736Z,7.1
2023-01-09T10:53:41.265Z,7.1
2023-01-09T10:54:48.420Z,7.1
2023-01-09T10:55:55.530Z,7.1
2023-01-09T10:57:02.610Z,7.1
2023-01-09T10:58:09.760Z,7
2023-01-09T10:59:16.278Z,7
2023-01-09T11:00:23.890Z,7
2023-01-09T11:01:30.469Z,7
2023-01-09T11:02:37.746Z,7
2023-01-09T11:03:44.807Z,7
2023-01-09T11:04:51.321Z,6.9
2023-01-09T11:05:58.476Z,6.8
2023-01-09T11:07:05.494Z,6.7
2023-01-09T11:08:12.581Z,6.7
2023-01-09T11:09:19.715Z,6.6
2023-01-09T11:10:26.337Z,6.5
2023-01-09T11:11:33.385Z,6.5
2023-01-09T11:12:40.513Z,6.4
2023-01-09T11:13:47.661Z,6.3
2023-01-09T11:14:54.722Z,6.3
2023-01-09T11:16:01.385Z,6.2
2023-01-09T11:17:08.437Z,6.2
2023-01-09T11:18:15.537Z,6.1
2023-01-09T11:19:22.686Z,6.1
2023-01-09T11:20:29.784Z,6.1
2023-01-09T11:22:43.474Z,6.2
2023-01-09T11:23:50.518Z,6.1
2023-01-09T11:24:57.620Z,6.1
2023-01-09T11:26:04.783Z,6.1
2023-01-09T11:27:11.305Z,6.2
2023-01-09T11:28:18.551Z,6.2
2023-01-09T11:29:25.542Z,6.2
2023-01-09T11:30:32.745Z,6.2
2023-01-09T11:31:39.819Z,6.1
2023-01-09T11:32:46.314Z,6.1
2023-01-09T11:33:53.427Z,6.2
2023-01-09T11:35:00.541Z,6.1
2023-01-09T11:36:07.636Z,6.1
2023-01-09T11:37:14.265Z,6.1
2023-01-09T11:38:21.375Z,6.1
2023-01-09T11:39:28.419Z,6.1
2023-01-09T11:40:35.555Z,6.1
2023-01-09T11:41:42.641Z,6
2023-01-09T11:42:49.267Z,6.1
2023-01-09T11:43:56.393Z,6
2023-01-09T11:45:03.447Z,6.1
2023-01-09T11:46:10.553Z,6.1
2023-01-09T11:47:17.667Z,6.1
2023-01-09T11:48:24.335Z,6.1
2023-01-09T11:49:31.397Z,6.1
2023-01-09T11:50:38.477Z,6.1
2023-01-09T11:51:45.611Z,6.1
2023-01-09T11:52:52.686Z,6.1
2023-01-09T11:53:59.824Z,6.1
2023-01-09T11:55:06.329Z,6.2
2023-01-09T11:56:13.520Z,6.2
2023-01-09T11:57:20.566Z,6.3
2023-01-09T11:58:27.712Z,6.3
2023-01-09T11:59:34.302Z,6.3
2023-01-09T12:00:41.348Z,6.3
2023-01-09T12:01:48.489Z,6.4
2023-01-09T12:02:55.621Z,6.4
2023-01-09T12:04:02.691Z,6.4
2023-01-09T12:05:09.321Z,6.5
2023-01-09T12:06:16.383Z,6.5
2023-01-09T12:07:23.596Z,6.5
2023-01-09T12:08:30.643Z,6.5
2023-01-09T12:09:37.706Z,6.5
2023-01-09T12:10:44.327Z,6.5
2023-01-09T12:11:51.373Z,6.6
2023-01-09T12:12:58.477Z,6.6
2023-01-09T12:14:05.582Z,6.7
2023-01-09T12:15:12.650Z,6.7
2023-01-09T12:17:26.392Z,6.7
2023-01-09T12:18:33.564Z,6.7
2023-01-09T12:19:40.628Z,6.7
2023-01-09T12:20:47.707Z,6.7
2023-01-09T12:21:54.266Z,6.7
2023-01-09T12:23:01.412Z,6.7
2023-01-09T12:24:08.530Z,6.7
2023-01-09T12:26:22.717Z,6.7
2023-01-09T12:27:29.328Z,6.8
2023-01-09T12:28:36.441Z,6.8
2023-01-09T12:29:43.502Z,6.8
2023-01-09T12:30:50.565Z,6.8
2023-01-09T12:31:57.313Z,6.8
2023-01-09T12:33:04.345Z,6.8
2023-01-09T12:34:11.376Z,6.8
2023-01-09T12:35:18.504Z,6.8
2023-01-09T12:36:25.650Z,6.8
2023-01-09T12:37:32.196Z,6.8
2023-01-09T12:38:39.379Z,6.7
2023-01-09T12:39:46.463Z,6.7
2023-01-09T12:40:53.474Z,6.6
2023-01-09T12:42:00.133Z,6.6
2023-01-09T12:42:00.571Z,6.6
2023-01-09T12:43:07.812Z,6.6
2023-01-09T12:44:15.631Z,6.6
2023-01-09T12:45:21.424Z,6.6
2023-01-09T12:46:28.532Z,6.6
2023-01-09T12:47:35.620Z,6.6
2023-01-09T12:48:42.318Z,6.6
2023-01-09T12:49:49.362Z,6.7
2023-01-09T12:50:56.430Z,6.7
2023-01-09T12:52:03.493Z,6.6
2023-01-09T12:53:10.702Z,6.7
2023-01-09T12:54:17.269Z,6.6
2023-01-09T12:55:24.449Z,6.6
2023-01-09T12:56:31.439Z,6.6
2023-01-09T12:57:38.561Z,6.6
2023-01-09T12:58:45.678Z,6.5
2023-01-09T12:59:52.234Z,6.5
2023-01-09T13:00:59.452Z,6.5
2023-01-09T13:02:06.542Z,6.5
2023-01-09T13:03:13.596Z,6.5
2023-01-09T13:04:20.609Z,6.4
2023-01-09T13:05:27.784Z,6.4
2023-01-09T13:06:34.328Z,6.4
2023-01-09T13:07:41.418Z,6.3
2023-01-09T13:08:48.534Z,6.3
2023-01-09T13:09:55.677Z,6.3
2023-01-09T13:11:14.777Z,6.3
2023-01-09T13:12:09.357Z,6.3
2023-01-09T13:13:16.509Z,6.3
2023-01-09T13:14:23.563Z,6.4
2023-01-09T13:15:30.697Z,6.4
2023-01-09T13:16:37.300Z,6.4
2023-01-09T13:17:44.422Z,6.5
2023-01-09T13:18:51.466Z,6.5
2023-01-09T13:19:58.583Z,6.5
2023-01-09T13:21:05.688Z,6.6
2023-01-09T13:22:14.474Z,6.7
2023-01-09T13:23:19.433Z,6.7
2023-01-09T13:24:26.516Z,6.7
2023-01-09T13:25:33.537Z,6.7
2023-01-09T13:26:40.637Z,6.8
2023-01-09T13:27:47.227Z,6.8
2023-01-09T13:30:01.503Z,6.8
2023-01-09T13:31:08.647Z,6.9
2023-01-09T13:32:15.713Z,6.9
2023-01-09T13:33:22.298Z,6.9
2023-01-09T13:34:29.344Z,7
2023-01-09T13:35:36.526Z,7
2023-01-09T13:36:43.595Z,7
2023-01-09T13:37:50.708Z,7
2023-01-09T13:38:57.340Z,7.1
2023-01-09T13:40:04.427Z,7.1
2023-01-09T13:41:11.523Z,7.1
2023-01-09T13:42:18.649Z,7.1
2023-01-09T13:43:25.782Z,7.1
2023-01-09T13:44:33.705Z,7.2
2023-01-09T13:45:39.589Z,7.2
2023-01-09T13:46:46.535Z,7.2
2023-01-09T13:47:53.611Z,7.2
2023-01-09T13:49:00.147Z,7.2
2023-01-09T13:50:07.338Z,7.2
2023-01-09T13:51:14.439Z,7.2
2023-01-09T13:52:21.502Z,7.2
2023-01-09T13:53:28.643Z,7.2
2023-01-09T13:54:35.711Z,7.2
2023-01-09T13:55:42.322Z,7.2
2023-01-09T13:56:49.413Z,7.2
2023-01-09T13:57:56.848Z,7.1
2023-01-09T13:59:03.597Z,7.2
2023-01-09T14:00:10.317Z,7.2
2023-01-09T14:01:17.355Z,7.1
2023-01-09T14:02:24.525Z,7.1
2023-01-09T14:03:31.549Z,7.1
2023-01-09T14:04:38.691Z,7.1
2023-01-09T14:05:45.234Z,7.1
2023-01-09T14:06:52.331Z,7.1
2023-01-09T14:07:59.434Z,7.2
2023-01-09T14:09:06.550Z,7.2
2023-01-09T14:10:14.940Z,7.1
2023-01-09T14:11:20.261Z,7.2
2023-01-09T14:12:27.360Z,7.2
2023-01-09T14:13:34.509Z,7.2
2023-01-09T14:14:41.533Z,7.2
2023-01-09T14:15:48.684Z,7.1
2023-01-09T14:16:55.810Z,7.2
2023-01-09T14:18:02.289Z,7.2
2023-01-09T14:19:09.604Z,7.2
2023-01-09T14:20:18.444Z,7.2
2023-01-09T14:22:30.213Z,7.2
2023-01-09T14:23:51.487Z,7.2
2023-01-09T14:24:44.432Z,7.2
2023-01-09T14:25:51.535Z,7.2
2023-01-09T14:26:58.680Z,7.2
2023-01-09T14:28:05.262Z,7.1
2023-01-09T14:29:12.310Z,7.2
2023-01-09T14:30:19.443Z,7.2
2023-01-09T14:31:26.650Z,7.2
2023-01-09T14:33:40.258Z,7.2
2023-01-09T14:34:47.367Z,7.2
2023-01-09T14:35:54.507Z,7.2
2023-01-09T14:37:01.796Z,7.2
2023-01-09T14:38:08.693Z,7.2
2023-01-09T14:39:15.301Z,7.2
2023-01-09T14:40:22.366Z,7.2
2023-01-09T14:41:29.500Z,7.2
2023-01-09T14:42:36.614Z,7.2
2023-01-09T14:43:43.728Z,7.2
2023-01-09T14:44:50.280Z,7.2
2023-01-09T14:45:57.505Z,7.2
2023-01-09T14:47:04.484Z,7.2
2023-01-09T14:48:11.588Z,7.2
2023-01-09T14:49:18.670Z,7.1
2023-01-09T14:50:25.307Z,7.1
2023-01-09T14:51:32.387Z,7.1
2023-01-09T14:52:39.465Z,7
2023-01-09T14:53:46.680Z,7
2023-01-09T14:54:53.685Z,7
2023-01-09T14:56:00.408Z,7
2023-01-09T14:57:07.350Z,7
2023-01-09T14:58:14.473Z,7
2023-01-09T14:59:21.614Z,7
2023-01-09T15:00:28.688Z,7
2023-01-09T15:01:35.309Z,7
2023-01-09T15:02:42.374Z,7
2023-01-09T15:03:49.578Z,7
2023-01-09T15:04:56.677Z,7
2023-01-09T15:06:03.713Z,7
2023-01-09T15:07:10.337Z,6.9
2023-01-09T15:08:17.583Z,6.9
2023-01-09T15:09:24.509Z,6.8
2023-01-09T15:10:31.663Z,6.8
2023-01-09T15:11:38.234Z,6.8
2023-01-09T15:12:45.333Z,6.8
2023-01-09T15:13:52.445Z,6.8
2023-01-09T15:14:59.497Z,6.8
2023-01-09T15:16:06.688Z,6.8
2023-01-09T15:17:13.253Z,6.8
2023-01-09T15:18:20.326Z,6.8
2023-01-09T15:19:27.411Z,6.8
2023-01-09T15:20:34.635Z,6.8
2023-01-09T15:21:41.586Z,6.8
2023-01-09T15:22:48.204Z,6.8
2023-01-09T15:23:55.364Z,6.8
2023-01-09T15:25:02.475Z,6.9
2023-01-09T15:26:09.571Z,6.8
2023-01-09T15:27:16.640Z,6.9
2023-01-09T15:28:23.702Z,6.9
2023-01-09T15:29:30.290Z,6.9
2023-01-09T15:30:37.467Z,6.9
2023-01-09T15:31:44.676Z,6.9
2023-01-09T15:32:51.642Z,6.9
2023-01-09T15:33:58.311Z,6.9
2023-01-09T15:35:05.392Z,6.9
2023-01-09T15:37:19.566Z,6.9
2023-01-09T15:38:26.696Z,7
2023-01-09T15:39:33.269Z,7
2023-01-09T15:40:40.386Z,7
2023-01-09T15:41:47.502Z,7
2023-01-09T15:42:56.440Z,7
2023-01-09T15:44:01.665Z,7
2023-01-09T15:45:08.235Z,7
2023-01-09T15:46:15.350Z,7
2023-01-09T15:47:22.413Z,7
2023-01-09T15:48:29.648Z,7.1
2023-01-09T15:50:43.229Z,7.1
2023-01-09T15:51:50.377Z,7.2
2023-01-09T15:52:57.486Z,7.2
2023-01-09T15:54:04.708Z,7.2
2023-01-09T15:55:11.711Z,7.2
2023-01-09T15:56:18.336Z,7.2
2023-01-09T15:57:25.377Z,7.2
2023-01-09T15:58:32.471Z,7.2
2023-01-09T15:59:39.571Z,7.2
2023-01-09T16:00:46.765Z,7.2
2023-01-09T16:01:53.306Z,7.2
2023-01-09T16:03:00.339Z,7.2
2023-01-09T16:04:07.572Z,7.2
2023-01-09T16:05:14.600Z,7.2
2023-01-09T16:06:21.647Z,7.2
2023-01-09T16:07:28.316Z,7.2
2023-01-09T16:08:35.464Z,7.2
2023-01-09T16:09:43.780Z,7.2
2023-01-09T16:10:49.568Z,7.3
2023-01-09T16:11:56.733Z,7.2
2023-01-09T16:13:03.257Z,7.3
2023-01-09T16:14:10.452Z,7.3
2023-01-09T16:15:17.523Z,7.3
2023-01-09T16:16:24.660Z,7.2
2023-01-09T16:17:31.692Z,7.2
2023-01-09T16:18:38.329Z,7
2023-01-09T16:19:45.396Z,7
2023-01-09T16:20:52.504Z,6.9